sensor_id;sensor_type;location;lat;lon;timestamp;temperature;humidity
18884;DHT22;9574;47.282;9.640;2023-05-18T00:01:59;9.50;99.90
18884;DHT22;9574;47.282;9.640;2023-05-18T00:04:30;9.60;99.90
18884;DHT22;9574;47.282;9.640;2023-05-18T00:06:58;9.60;99.90
18884;DHT22;9574;47.282;9.640;2023-05-18T00:09:28;9.80;99.90
18884;DHT22;9574;47.282;9.640;2023-05-18T00:11:56;10.00;99.90
18884;DHT22;9574;47.282;9.640;2023-05-18T00:14:23;10.10;99.90
18884;DHT22;9574;47.282;9.640;2023-05-18T00:16:50;10.10;99.90
18884;DHT22;9574;47.282;9.640;2023-05-18T00:19:18;10.30;99.90
18884;DHT22;9574;47.282;9.640;2023-05-18T00:21:47;10.20;99.90
18884;DHT22;9574;47.282;9.640;2023-05-18T00:24:15;10.00;99.90
18884;DHT22;9574;47.282;9.640;2023-05-18T00:26:44;9.90;99.90
18884;DHT22;9574;47.282;9.640;2023-05-18T00:29:11;9.90;99.90
18884;DHT22;9574;47.282;9.640;2023-05-18T00:31:38;9.70;99.90
18884;DHT22;9574;47.282;9.640;2023-05-18T00:34:05;9.50;99.90
18884;DHT22;9574;47.282;9.640;2023-05-18T00:36:33;9.30;99.90
18884;DHT22;9574;47.282;9.640;2023-05-18T00:39:02;9.30;99.90
18884;DHT22;9574;47.282;9.640;2023-05-18T00:41:30;9.20;99.90
18884;DHT22;9574;47.282;9.640;2023-05-18T00:43:57;9.20;99.90
18884;DHT22;9574;47.282;9.640;2023-05-18T00:46:25;9.10;99.90
18884;DHT22;9574;47.282;9.640;2023-05-18T00:48:54;9.10;99.90
18884;DHT22;9574;47.282;9.640;2023-05-18T00:51:22;9.10;99.90
18884;DHT22;9574;47.282;9.640;2023-05-18T00:53:51;9.10;99.90
18884;DHT22;9574;47.282;9.640;2023-05-18T00:56:20;9.10;99.90
18884;DHT22;9574;47.282;9.640;2023-05-18T00:58:49;9.00;99.90
18884;DHT22;9574;47.282;9.640;2023-05-18T01:01:18;9.00;99.90
18884;DHT22;9574;47.282;9.640;2023-05-18T01:03:45;8.90;99.90
18884;DHT22;9574;47.282;9.640;2023-05-18T01:06:12;8.90;99.90
18884;DHT22;9574;47.282;9.640;2023-05-18T01:08:39;8.90;99.90
18884;DHT22;9574;47.282;9.640;2023-05-18T01:11:14;8.80;99.90
18884;DHT22;9574;47.282;9.640;2023-05-18T01:13:49;8.80;99.90
18884;DHT22;9574;47.282;9.640;2023-05-18T01:16:26;8.80;99.90
18884;DHT22;9574;47.282;9.640;2023-05-18T01:19:01;8.70;99.90
18884;DHT22;9574;47.282;9.640;2023-05-18T01:21:42;8.60;99.90
18884;DHT22;9574;47.282;9.640;2023-05-18T01:24:22;8.60;99.90
18884;DHT22;9574;47.282;9.640;2023-05-18T01:26:52;8.60;99.90
18884;DHT22;9574;47.282;9.640;2023-05-18T01:29:22;8.70;99.90
18884;DHT22;9574;47.282;9.640;2023-05-18T01:31:50;8.60;99.90
18884;DHT22;9574;47.282;9.640;2023-05-18T01:34:17;8.50;99.90
18884;DHT22;9574;47.282;9.640;2023-05-18T01:36:44;8.40;99.90
18884;DHT22;9574;47.282;9.640;2023-05-18T01:39:11;8.40;99.90
18884;DHT22;9574;47.282;9.640;2023-05-18T01:41:42;8.30;99.90
18884;DHT22;9574;47.282;9.640;2023-05-18T01:44:18;8.30;99.90
18884;DHT22;9574;47.282;9.640;2023-05-18T01:46:52;8.20;99.90
18884;DHT22;9574;47.282;9.640;2023-05-18T01:49:28;8.30;99.90
18884;DHT22;9574;47.282;9.640;2023-05-18T01:52:00;8.30;99.90
18884;DHT22;9574;47.282;9.640;2023-05-18T01:54:30;8.40;99.90
18884;DHT22;9574;47.282;9.640;2023-05-18T01:56:58;8.40;99.90
18884;DHT22;9574;47.282;9.640;2023-05-18T01:59:27;8.30;99.90
18884;DHT22;9574;47.282;9.640;2023-05-18T02:01:58;8.20;99.90
18884;DHT22;9574;47.282;9.640;2023-05-18T02:04:25;8.10;99.90
18884;DHT22;9574;47.282;9.640;2023-05-18T02:06:52;8.10;99.90
18884;DHT22;9574;47.282;9.640;2023-05-18T02:09:19;8.00;99.90
18884;DHT22;9574;47.282;9.640;2023-05-18T02:11:47;8.00;99.90
18884;DHT22;9574;47.282;9.640;2023-05-18T02:14:14;7.90;99.90
18884;DHT22;9574;47.282;9.640;2023-05-18T02:16:42;7.80;99.90
18884;DHT22;9574;47.282;9.640;2023-05-18T02:19:11;7.90;99.90
18884;DHT22;9574;47.282;9.640;2023-05-18T02:21:39;7.80;99.90
18884;DHT22;9574;47.282;9.640;2023-05-18T02:24:08;7.90;99.90
18884;DHT22;9574;47.282;9.640;2023-05-18T02:26:35;7.90;99.90
18884;DHT22;9574;47.282;9.640;2023-05-18T02:29:03;7.90;99.90
18884;DHT22;9574;47.282;9.640;2023-05-18T02:31:31;7.80;99.90
18884;DHT22;9574;47.282;9.640;2023-05-18T02:33:59;7.80;99.90
18884;DHT22;9574;47.282;9.640;2023-05-18T02:36:26;7.70;99.90
18884;DHT22;9574;47.282;9.640;2023-05-18T02:39:02;7.60;99.90
18884;DHT22;9574;47.282;9.640;2023-05-18T02:41:29;7.60;99.90
18884;DHT22;9574;47.282;9.640;2023-05-18T02:43:56;7.50;99.90
18884;DHT22;9574;47.282;9.640;2023-05-18T02:46:23;7.50;99.90
18884;DHT22;9574;47.282;9.640;2023-05-18T02:48:50;7.50;99.90
18884;DHT22;9574;47.282;9.640;2023-05-18T02:51:19;7.40;99.90
18884;DHT22;9574;47.282;9.640;2023-05-18T02:53:47;7.40;99.90
18884;DHT22;9574;47.282;9.640;2023-05-18T02:56:14;7.50;99.90
18884;DHT22;9574;47.282;9.640;2023-05-18T02:58:42;7.50;99.90
18884;DHT22;9574;47.282;9.640;2023-05-18T03:01:09;7.60;99.90
18884;DHT22;9574;47.282;9.640;2023-05-18T03:03:41;7.60;99.90
18884;DHT22;9574;47.282;9.640;2023-05-18T03:06:08;7.60;99.90
18884;DHT22;9574;47.282;9.640;2023-05-18T03:08:37;7.50;99.90
18884;DHT22;9574;47.282;9.640;2023-05-18T03:11:06;7.50;99.90
18884;DHT22;9574;47.282;9.640;2023-05-18T03:13:32;7.40;99.90
18884;DHT22;9574;47.282;9.640;2023-05-18T03:16:00;7.40;99.90
18884;DHT22;9574;47.282;9.640;2023-05-18T03:18:26;7.40;99.90
18884;DHT22;9574;47.282;9.640;2023-05-18T03:20:53;7.50;99.90
18884;DHT22;9574;47.282;9.640;2023-05-18T03:23:20;7.60;99.90
18884;DHT22;9574;47.282;9.640;2023-05-18T03:25:49;7.60;99.90
18884;DHT22;9574;47.282;9.640;2023-05-18T03:28:18;7.90;99.90
18884;DHT22;9574;47.282;9.640;2023-05-18T03:30:45;7.80;99.90
18884;DHT22;9574;47.282;9.640;2023-05-18T03:33:12;7.80;99.90
18884;DHT22;9574;47.282;9.640;2023-05-18T03:35:40;7.70;99.90
18884;DHT22;9574;47.282;9.640;2023-05-18T03:38:07;7.60;99.90
18884;DHT22;9574;47.282;9.640;2023-05-18T03:40:34;7.50;99.90
18884;DHT22;9574;47.282;9.640;2023-05-18T03:43:02;7.30;99.90
18884;DHT22;9574;47.282;9.640;2023-05-18T03:45:29;7.30;99.90
18884;DHT22;9574;47.282;9.640;2023-05-18T03:47:56;7.20;99.90
18884;DHT22;9574;47.282;9.640;2023-05-18T03:50:23;7.20;99.90
18884;DHT22;9574;47.282;9.640;2023-05-18T03:52:52;7.20;99.90
18884;DHT22;9574;47.282;9.640;2023-05-18T03:55:20;7.20;99.90
18884;DHT22;9574;47.282;9.640;2023-05-18T03:57:47;7.20;99.90
18884;DHT22;9574;47.282;9.640;2023-05-18T04:00:16;7.20;99.90
18884;DHT22;9574;47.282;9.640;2023-05-18T04:02:43;7.20;99.90
18884;DHT22;9574;47.282;9.640;2023-05-18T04:05:10;7.10;99.90
18884;DHT22;9574;47.282;9.640;2023-05-18T04:07:43;7.20;99.90
18884;DHT22;9574;47.282;9.640;2023-05-18T04:10:11;7.30;99.90
18884;DHT22;9574;47.282;9.640;2023-05-18T04:12:39;7.40;99.90
18884;DHT22;9574;47.282;9.640;2023-05-18T04:15:07;7.30;99.90
18884;DHT22;9574;47.282;9.640;2023-05-18T04:17:35;7.20;99.90
18884;DHT22;9574;47.282;9.640;2023-05-18T04:20:05;7.20;99.90
18884;DHT22;9574;47.282;9.640;2023-05-18T04:22:41;7.10;99.90
18884;DHT22;9574;47.282;9.640;2023-05-18T04:25:11;7.10;99.90
18884;DHT22;9574;47.282;9.640;2023-05-18T04:27:38;7.10;99.90
18884;DHT22;9574;47.282;9.640;2023-05-18T04:30:07;7.00;99.90
18884;DHT22;9574;47.282;9.640;2023-05-18T04:32:37;7.10;99.90
18884;DHT22;9574;47.282;9.640;2023-05-18T04:35:08;7.10;99.90
18884;DHT22;9574;47.282;9.640;2023-05-18T04:37:35;7.10;99.90
18884;DHT22;9574;47.282;9.640;2023-05-18T04:40:06;7.20;99.90
18884;DHT22;9574;47.282;9.640;2023-05-18T04:42:33;7.20;99.90
18884;DHT22;9574;47.282;9.640;2023-05-18T04:45:00;7.20;99.90
18884;DHT22;9574;47.282;9.640;2023-05-18T04:47:30;7.30;99.90
18884;DHT22;9574;47.282;9.640;2023-05-18T04:49:58;7.30;99.90
18884;DHT22;9574;47.282;9.640;2023-05-18T04:52:26;7.40;99.90
18884;DHT22;9574;47.282;9.640;2023-05-18T04:54:55;7.40;99.90
18884;DHT22;9574;47.282;9.640;2023-05-18T04:57:22;7.50;99.90
18884;DHT22;9574;47.282;9.640;2023-05-18T04:59:49;7.50;99.90
18884;DHT22;9574;47.282;9.640;2023-05-18T05:02:18;7.50;99.90
18884;DHT22;9574;47.282;9.640;2023-05-18T05:04:45;7.60;99.90
18884;DHT22;9574;47.282;9.640;2023-05-18T05:07:13;7.70;99.90
18884;DHT22;9574;47.282;9.640;2023-05-18T05:09:40;7.80;99.90
18884;DHT22;9574;47.282;9.640;2023-05-18T05:12:08;7.90;99.90
18884;DHT22;9574;47.282;9.640;2023-05-18T05:14:35;7.90;99.90
18884;DHT22;9574;47.282;9.640;2023-05-18T05:17:02;7.90;99.90
18884;DHT22;9574;47.282;9.640;2023-05-18T05:19:29;8.00;99.90
18884;DHT22;9574;47.282;9.640;2023-05-18T05:21:56;8.10;99.90
18884;DHT22;9574;47.282;9.640;2023-05-18T05:24:24;8.30;99.90
18884;DHT22;9574;47.282;9.640;2023-05-18T05:26:51;8.40;99.90
18884;DHT22;9574;47.282;9.640;2023-05-18T05:29:18;8.40;99.90
18884;DHT22;9574;47.282;9.640;2023-05-18T05:31:46;8.30;99.90
18884;DHT22;9574;47.282;9.640;2023-05-18T05:34:13;8.40;99.90
18884;DHT22;9574;47.282;9.640;2023-05-18T05:36:40;8.70;99.90
18884;DHT22;9574;47.282;9.640;2023-05-18T05:39:07;8.80;99.90
18884;DHT22;9574;47.282;9.640;2023-05-18T05:41:36;8.80;99.90
18884;DHT22;9574;47.282;9.640;2023-05-18T05:44:03;8.90;99.90
18884;DHT22;9574;47.282;9.640;2023-05-18T05:46:30;9.00;99.90
18884;DHT22;9574;47.282;9.640;2023-05-18T05:48:57;9.20;99.90
18884;DHT22;9574;47.282;9.640;2023-05-18T05:51:25;9.50;99.90
18884;DHT22;9574;47.282;9.640;2023-05-18T05:53:51;9.40;99.90
18884;DHT22;9574;47.282;9.640;2023-05-18T05:56:18;9.50;99.90
18884;DHT22;9574;47.282;9.640;2023-05-18T05:58:47;9.50;99.90
18884;DHT22;9574;47.282;9.640;2023-05-18T06:01:14;9.60;99.90
18884;DHT22;9574;47.282;9.640;2023-05-18T06:03:41;9.50;99.90
18884;DHT22;9574;47.282;9.640;2023-05-18T06:06:09;9.60;99.90
18884;DHT22;9574;47.282;9.640;2023-05-18T06:08:36;9.80;99.90
18884;DHT22;9574;47.282;9.640;2023-05-18T06:11:03;10.00;99.90
18884;DHT22;9574;47.282;9.640;2023-05-18T06:13:30;10.10;99.90
18884;DHT22;9574;47.282;9.640;2023-05-18T06:15:59;10.10;99.90
18884;DHT22;9574;47.282;9.640;2023-05-18T06:18:26;10.20;99.90
18884;DHT22;9574;47.282;9.640;2023-05-18T06:20:53;10.20;99.90
18884;DHT22;9574;47.282;9.640;2023-05-18T06:23:20;10.20;99.90
18884;DHT22;9574;47.282;9.640;2023-05-18T06:25:48;10.40;99.90
18884;DHT22;9574;47.282;9.640;2023-05-18T06:28:15;10.50;99.90
18884;DHT22;9574;47.282;9.640;2023-05-18T06:30:42;10.60;99.90
18884;DHT22;9574;47.282;9.640;2023-05-18T06:33:11;10.60;99.90
18884;DHT22;9574;47.282;9.640;2023-05-18T06:35:38;10.70;99.90
18884;DHT22;9574;47.282;9.640;2023-05-18T06:38:05;10.70;99.90
18884;DHT22;9574;47.282;9.640;2023-05-18T06:40:33;10.80;99.90
18884;DHT22;9574;47.282;9.640;2023-05-18T06:43:00;11.00;99.90
18884;DHT22;9574;47.282;9.640;2023-05-18T06:45:27;10.80;99.90
18884;DHT22;9574;47.282;9.640;2023-05-18T06:47:54;10.90;99.90
18884;DHT22;9574;47.282;9.640;2023-05-18T06:50:22;11.10;99.90
18884;DHT22;9574;47.282;9.640;2023-05-18T06:52:49;11.10;99.90
18884;DHT22;9574;47.282;9.640;2023-05-18T06:55:17;11.00;99.90
18884;DHT22;9574;47.282;9.640;2023-05-18T06:57:44;11.10;99.90
18884;DHT22;9574;47.282;9.640;2023-05-18T07:00:12;11.20;99.90
18884;DHT22;9574;47.282;9.640;2023-05-18T07:02:39;11.40;99.90
18884;DHT22;9574;47.282;9.640;2023-05-18T07:05:08;11.60;99.90
18884;DHT22;9574;47.282;9.640;2023-05-18T07:07:36;11.60;99.90
18884;DHT22;9574;47.282;9.640;2023-05-18T07:10:04;11.60;99.90
18884;DHT22;9574;47.282;9.640;2023-05-18T07:12:31;11.70;99.90
18884;DHT22;9574;47.282;9.640;2023-05-18T07:14:58;11.60;99.90
18884;DHT22;9574;47.282;9.640;2023-05-18T07:17:25;11.70;99.90
18884;DHT22;9574;47.282;9.640;2023-05-18T07:19:52;12.00;99.90
18884;DHT22;9574;47.282;9.640;2023-05-18T07:22:19;12.10;99.90
18884;DHT22;9574;47.282;9.640;2023-05-18T07:24:47;12.30;99.90
18884;DHT22;9574;47.282;9.640;2023-05-18T07:27:14;12.30;99.90
18884;DHT22;9574;47.282;9.640;2023-05-18T07:29:41;12.40;99.90
18884;DHT22;9574;47.282;9.640;2023-05-18T07:32:08;12.40;99.90
18884;DHT22;9574;47.282;9.640;2023-05-18T07:34:35;12.60;99.90
18884;DHT22;9574;47.282;9.640;2023-05-18T07:37:02;12.70;99.90
18884;DHT22;9574;47.282;9.640;2023-05-18T07:39:29;12.80;99.90
18884;DHT22;9574;47.282;9.640;2023-05-18T07:41:58;12.80;99.90
18884;DHT22;9574;47.282;9.640;2023-05-18T07:44:25;13.00;99.90
18884;DHT22;9574;47.282;9.640;2023-05-18T07:46:52;13.00;99.90
18884;DHT22;9574;47.282;9.640;2023-05-18T07:49:19;13.10;99.90
18884;DHT22;9574;47.282;9.640;2023-05-18T07:51:47;13.30;99.90
18884;DHT22;9574;47.282;9.640;2023-05-18T07:54:14;13.40;99.90
18884;DHT22;9574;47.282;9.640;2023-05-18T07:56:41;13.50;99.90
18884;DHT22;9574;47.282;9.640;2023-05-18T07:59:10;13.60;99.90
18884;DHT22;9574;47.282;9.640;2023-05-18T08:01:37;13.90;99.90
18884;DHT22;9574;47.282;9.640;2023-05-18T08:04:05;13.90;99.90
18884;DHT22;9574;47.282;9.640;2023-05-18T08:06:32;14.00;99.90
18884;DHT22;9574;47.282;9.640;2023-05-18T08:08:59;14.10;99.90
18884;DHT22;9574;47.282;9.640;2023-05-18T08:11:26;14.20;99.90
18884;DHT22;9574;47.282;9.640;2023-05-18T08:13:53;14.30;99.90
18884;DHT22;9574;47.282;9.640;2023-05-18T08:16:21;14.30;99.90
18884;DHT22;9574;47.282;9.640;2023-05-18T08:18:48;14.30;99.90
18884;DHT22;9574;47.282;9.640;2023-05-18T08:21:16;14.40;99.90
18884;DHT22;9574;47.282;9.640;2023-05-18T08:23:43;14.50;99.90
18884;DHT22;9574;47.282;9.640;2023-05-18T08:26:10;14.50;99.90
18884;DHT22;9574;47.282;9.640;2023-05-18T08:28:37;14.60;99.90
18884;DHT22;9574;47.282;9.640;2023-05-18T08:31:05;14.60;99.90
18884;DHT22;9574;47.282;9.640;2023-05-18T08:33:33;14.60;99.90
18884;DHT22;9574;47.282;9.640;2023-05-18T08:36:00;14.80;99.90
18884;DHT22;9574;47.282;9.640;2023-05-18T08:38:27;15.10;99.90
18884;DHT22;9574;47.282;9.640;2023-05-18T08:41:01;15.20;99.90
18884;DHT22;9574;47.282;9.640;2023-05-18T08:43:30;15.30;99.90
18884;DHT22;9574;47.282;9.640;2023-05-18T08:46:03;15.10;99.90
18884;DHT22;9574;47.282;9.640;2023-05-18T08:48:33;14.80;99.90
18884;DHT22;9574;47.282;9.640;2023-05-18T08:51:02;14.70;99.90
18884;DHT22;9574;47.282;9.640;2023-05-18T08:53:32;14.50;99.90
18884;DHT22;9574;47.282;9.640;2023-05-18T08:55:59;14.20;99.90
18884;DHT22;9574;47.282;9.640;2023-05-18T08:58:33;14.20;99.90
18884;DHT22;9574;47.282;9.640;2023-05-18T09:01:00;14.10;99.90
18884;DHT22;9574;47.282;9.640;2023-05-18T09:03:28;14.20;99.90
18884;DHT22;9574;47.282;9.640;2023-05-18T09:05:58;14.50;99.90
18884;DHT22;9574;47.282;9.640;2023-05-18T09:08:26;15.00;99.90
18884;DHT22;9574;47.282;9.640;2023-05-18T09:10:56;15.20;99.90
18884;DHT22;9574;47.282;9.640;2023-05-18T09:13:23;15.20;99.90
18884;DHT22;9574;47.282;9.640;2023-05-18T09:15:51;15.20;99.90
18884;DHT22;9574;47.282;9.640;2023-05-18T09:18:18;15.10;99.90
18884;DHT22;9574;47.282;9.640;2023-05-18T09:20:45;15.00;99.90
18884;DHT22;9574;47.282;9.640;2023-05-18T09:23:17;14.80;99.90
18884;DHT22;9574;47.282;9.640;2023-05-18T09:25:45;14.70;99.90
18884;DHT22;9574;47.282;9.640;2023-05-18T09:28:25;14.70;99.90
18884;DHT22;9574;47.282;9.640;2023-05-18T09:30:52;14.70;99.90
18884;DHT22;9574;47.282;9.640;2023-05-18T09:33:20;14.60;99.90
18884;DHT22;9574;47.282;9.640;2023-05-18T09:35:49;14.50;99.90
18884;DHT22;9574;47.282;9.640;2023-05-18T09:38:20;14.50;99.90
18884;DHT22;9574;47.282;9.640;2023-05-18T09:40:48;14.60;99.90
18884;DHT22;9574;47.282;9.640;2023-05-18T09:43:16;14.60;99.90
18884;DHT22;9574;47.282;9.640;2023-05-18T09:45:45;14.70;99.90
18884;DHT22;9574;47.282;9.640;2023-05-18T09:48:13;14.90;99.90
18884;DHT22;9574;47.282;9.640;2023-05-18T09:50:42;14.90;99.90
18884;DHT22;9574;47.282;9.640;2023-05-18T09:53:10;14.90;99.90
18884;DHT22;9574;47.282;9.640;2023-05-18T09:55:45;14.80;99.90
18884;DHT22;9574;47.282;9.640;2023-05-18T09:58:12;14.80;99.90
18884;DHT22;9574;47.282;9.640;2023-05-18T10:00:40;14.90;99.90
18884;DHT22;9574;47.282;9.640;2023-05-18T10:03:18;14.90;99.90
18884;DHT22;9574;47.282;9.640;2023-05-18T10:05:46;15.00;99.90
18884;DHT22;9574;47.282;9.640;2023-05-18T10:08:14;15.00;99.90
18884;DHT22;9574;47.282;9.640;2023-05-18T10:10:44;14.80;99.90
18884;DHT22;9574;47.282;9.640;2023-05-18T10:13:12;14.90;99.90
18884;DHT22;9574;47.282;9.640;2023-05-18T10:15:46;15.00;99.90
18884;DHT22;9574;47.282;9.640;2023-05-18T10:18:19;15.00;99.90
18884;DHT22;9574;47.282;9.640;2023-05-18T10:20:47;14.90;99.90
18884;DHT22;9574;47.282;9.640;2023-05-18T10:23:15;15.00;99.90
18884;DHT22;9574;47.282;9.640;2023-05-18T10:25:45;15.10;99.90
18884;DHT22;9574;47.282;9.640;2023-05-18T10:28:17;15.10;99.90
18884;DHT22;9574;47.282;9.640;2023-05-18T10:30:44;15.20;99.90
18884;DHT22;9574;47.282;9.640;2023-05-18T10:33:13;15.30;99.90
18884;DHT22;9574;47.282;9.640;2023-05-18T10:35:41;15.30;99.90
18884;DHT22;9574;47.282;9.640;2023-05-18T10:38:10;15.20;99.90
18884;DHT22;9574;47.282;9.640;2023-05-18T10:40:39;15.20;99.90
18884;DHT22;9574;47.282;9.640;2023-05-18T10:43:09;15.30;99.90
18884;DHT22;9574;47.282;9.640;2023-05-18T10:45:37;15.30;99.90
18884;DHT22;9574;47.282;9.640;2023-05-18T10:48:08;15.40;99.90
18884;DHT22;9574;47.282;9.640;2023-05-18T10:50:37;15.50;99.90
18884;DHT22;9574;47.282;9.640;2023-05-18T10:53:05;15.60;99.90
18884;DHT22;9574;47.282;9.640;2023-05-18T10:55:32;15.60;99.90
18884;DHT22;9574;47.282;9.640;2023-05-18T10:58:03;15.70;99.90
18884;DHT22;9574;47.282;9.640;2023-05-18T11:00:35;15.80;99.90
18884;DHT22;9574;47.282;9.640;2023-05-18T11:03:07;15.90;99.90
18884;DHT22;9574;47.282;9.640;2023-05-18T11:05:35;15.80;99.90
18884;DHT22;9574;47.282;9.640;2023-05-18T11:08:04;15.90;99.90
18884;DHT22;9574;47.282;9.640;2023-05-18T11:10:38;15.90;99.90
18884;DHT22;9574;47.282;9.640;2023-05-18T11:13:08;16.00;99.90
18884;DHT22;9574;47.282;9.640;2023-05-18T11:16:07;15.90;99.90
18884;DHT22;9574;47.282;9.640;2023-05-18T11:18:42;15.90;99.90
18884;DHT22;9574;47.282;9.640;2023-05-18T11:21:29;15.90;99.90
18884;DHT22;9574;47.282;9.640;2023-05-18T11:24:21;16.10;99.90
18884;DHT22;9574;47.282;9.640;2023-05-18T11:26:49;16.20;99.90
18884;DHT22;9574;47.282;9.640;2023-05-18T11:29:18;16.20;99.90
18884;DHT22;9574;47.282;9.640;2023-05-18T11:31:49;16.20;99.90
18884;DHT22;9574;47.282;9.640;2023-05-18T11:34:36;16.20;99.90
18884;DHT22;9574;47.282;9.640;2023-05-18T11:37:07;16.40;99.90
18884;DHT22;9574;47.282;9.640;2023-05-18T11:39:35;16.40;99.90
18884;DHT22;9574;47.282;9.640;2023-05-18T11:42:06;16.50;99.90
18884;DHT22;9574;47.282;9.640;2023-05-18T11:44:33;16.50;99.90
18884;DHT22;9574;47.282;9.640;2023-05-18T11:47:03;16.60;99.90
18884;DHT22;9574;47.282;9.640;2023-05-18T11:49:31;16.60;99.90
18884;DHT22;9574;47.282;9.640;2023-05-18T11:52:06;16.50;99.90
18884;DHT22;9574;47.282;9.640;2023-05-18T11:54:37;16.60;99.90
18884;DHT22;9574;47.282;9.640;2023-05-18T11:57:04;16.60;99.90
18884;DHT22;9574;47.282;9.640;2023-05-18T11:59:33;16.40;99.90
18884;DHT22;9574;47.282;9.640;2023-05-18T12:02:03;16.30;99.90
18884;DHT22;9574;47.282;9.640;2023-05-18T12:04:31;16.10;99.90
18884;DHT22;9574;47.282;9.640;2023-05-18T12:07:03;16.10;99.90
18884;DHT22;9574;47.282;9.640;2023-05-18T12:09:30;15.90;99.90
18884;DHT22;9574;47.282;9.640;2023-05-18T12:11:57;15.90;99.90
18884;DHT22;9574;47.282;9.640;2023-05-18T12:14:25;15.90;99.90
18884;DHT22;9574;47.282;9.640;2023-05-18T12:16:53;16.00;99.90
18884;DHT22;9574;47.282;9.640;2023-05-18T12:19:24;16.00;99.90
18884;DHT22;9574;47.282;9.640;2023-05-18T12:21:52;16.10;99.90
18884;DHT22;9574;47.282;9.640;2023-05-18T12:24:19;16.00;99.90
18884;DHT22;9574;47.282;9.640;2023-05-18T12:26:46;16.00;99.90
18884;DHT22;9574;47.282;9.640;2023-05-18T12:29:14;16.00;99.90
18884;DHT22;9574;47.282;9.640;2023-05-18T12:31:45;16.00;99.90
18884;DHT22;9574;47.282;9.640;2023-05-18T12:34:14;15.90;99.90
18884;DHT22;9574;47.282;9.640;2023-05-18T12:36:50;15.80;99.90
18884;DHT22;9574;47.282;9.640;2023-05-18T12:39:18;15.80;99.90
18884;DHT22;9574;47.282;9.640;2023-05-18T12:41:45;15.80;99.90
18884;DHT22;9574;47.282;9.640;2023-05-18T12:44:12;15.80;99.90
18884;DHT22;9574;47.282;9.640;2023-05-18T12:46:40;15.80;99.90
18884;DHT22;9574;47.282;9.640;2023-05-18T12:49:08;15.80;99.90
18884;DHT22;9574;47.282;9.640;2023-05-18T12:51:37;15.70;99.90
18884;DHT22;9574;47.282;9.640;2023-05-18T12:54:06;15.70;99.90
18884;DHT22;9574;47.282;9.640;2023-05-18T12:56:52;15.70;99.90
18884;DHT22;9574;47.282;9.640;2023-05-18T12:59:25;15.70;99.90
18884;DHT22;9574;47.282;9.640;2023-05-18T13:01:52;15.70;99.90
18884;DHT22;9574;47.282;9.640;2023-05-18T13:04:20;15.60;99.90
18884;DHT22;9574;47.282;9.640;2023-05-18T13:06:47;15.70;99.90
18884;DHT22;9574;47.282;9.640;2023-05-18T13:09:16;15.70;99.90
18884;DHT22;9574;47.282;9.640;2023-05-18T13:11:49;15.70;99.90
18884;DHT22;9574;47.282;9.640;2023-05-18T13:14:19;15.80;99.90
18884;DHT22;9574;47.282;9.640;2023-05-18T13:16:49;15.80;99.90
18884;DHT22;9574;47.282;9.640;2023-05-18T13:19:17;15.90;99.90
18884;DHT22;9574;47.282;9.640;2023-05-18T13:21:44;15.80;99.90
18884;DHT22;9574;47.282;9.640;2023-05-18T13:24:12;15.80;99.90
18884;DHT22;9574;47.282;9.640;2023-05-18T13:26:40;15.80;99.90
18884;DHT22;9574;47.282;9.640;2023-05-18T13:29:07;15.80;99.90
18884;DHT22;9574;47.282;9.640;2023-05-18T13:31:34;15.80;99.90
18884;DHT22;9574;47.282;9.640;2023-05-18T13:34:02;15.70;99.90
18884;DHT22;9574;47.282;9.640;2023-05-18T13:36:29;15.70;99.90
18884;DHT22;9574;47.282;9.640;2023-05-18T13:38:58;15.70;99.90
18884;DHT22;9574;47.282;9.640;2023-05-18T13:41:25;15.70;99.90
18884;DHT22;9574;47.282;9.640;2023-05-18T13:43:54;15.60;99.90
18884;DHT22;9574;47.282;9.640;2023-05-18T13:46:21;15.50;99.90
18884;DHT22;9574;47.282;9.640;2023-05-18T13:48:48;15.60;99.90
18884;DHT22;9574;47.282;9.640;2023-05-18T13:51:14;15.60;99.90
18884;DHT22;9574;47.282;9.640;2023-05-18T13:53:41;15.50;99.90
18884;DHT22;9574;47.282;9.640;2023-05-18T13:56:08;15.50;99.90
18884;DHT22;9574;47.282;9.640;2023-05-18T13:58:35;15.40;99.90
18884;DHT22;9574;47.282;9.640;2023-05-18T14:01:04;15.30;99.90
18884;DHT22;9574;47.282;9.640;2023-05-18T14:03:32;15.30;99.90
18884;DHT22;9574;47.282;9.640;2023-05-18T14:06:01;15.30;99.90
18884;DHT22;9574;47.282;9.640;2023-05-18T14:08:28;15.40;99.90
18884;DHT22;9574;47.282;9.640;2023-05-18T14:10:55;15.30;99.90
18884;DHT22;9574;47.282;9.640;2023-05-18T14:13:22;15.40;99.90
18884;DHT22;9574;47.282;9.640;2023-05-18T14:15:49;15.40;99.90
18884;DHT22;9574;47.282;9.640;2023-05-18T14:18:17;15.50;99.90
18884;DHT22;9574;47.282;9.640;2023-05-18T14:20:44;15.50;99.90
18884;DHT22;9574;47.282;9.640;2023-05-18T14:23:13;15.50;99.90
18884;DHT22;9574;47.282;9.640;2023-05-18T14:25:40;15.50;99.90
18884;DHT22;9574;47.282;9.640;2023-05-18T14:28:08;15.50;99.90
18884;DHT22;9574;47.282;9.640;2023-05-18T14:30:35;15.50;99.90
18884;DHT22;9574;47.282;9.640;2023-05-18T14:33:03;15.40;99.90
18884;DHT22;9574;47.282;9.640;2023-05-18T14:35:31;15.40;99.90
18884;DHT22;9574;47.282;9.640;2023-05-18T14:37:58;15.30;99.90
18884;DHT22;9574;47.282;9.640;2023-05-18T14:40:25;15.30;99.90
18884;DHT22;9574;47.282;9.640;2023-05-18T14:42:52;15.20;99.90
18884;DHT22;9574;47.282;9.640;2023-05-18T14:45:19;15.10;99.90
18884;DHT22;9574;47.282;9.640;2023-05-18T14:47:47;15.10;99.90
18884;DHT22;9574;47.282;9.640;2023-05-18T14:50:13;15.20;99.90
18884;DHT22;9574;47.282;9.640;2023-05-18T14:52:42;15.20;99.90
18884;DHT22;9574;47.282;9.640;2023-05-18T14:55:09;15.30;99.90
18884;DHT22;9574;47.282;9.640;2023-05-18T14:57:36;15.30;99.90
18884;DHT22;9574;47.282;9.640;2023-05-18T15:00:04;15.30;99.90
18884;DHT22;9574;47.282;9.640;2023-05-18T15:02:31;15.30;99.90
18884;DHT22;9574;47.282;9.640;2023-05-18T15:04:58;15.20;99.90
18884;DHT22;9574;47.282;9.640;2023-05-18T15:07:26;15.30;99.90
18884;DHT22;9574;47.282;9.640;2023-05-18T15:09:54;15.30;99.90
18884;DHT22;9574;47.282;9.640;2023-05-18T15:12:21;15.40;99.90
18884;DHT22;9574;47.282;9.640;2023-05-18T15:14:51;15.40;99.90
18884;DHT22;9574;47.282;9.640;2023-05-18T15:17:19;15.30;99.90
18884;DHT22;9574;47.282;9.640;2023-05-18T15:19:46;15.30;99.90
18884;DHT22;9574;47.282;9.640;2023-05-18T15:22:13;15.30;99.90
18884;DHT22;9574;47.282;9.640;2023-05-18T15:24:40;15.40;99.90
18884;DHT22;9574;47.282;9.640;2023-05-18T15:27:08;15.40;99.90
18884;DHT22;9574;47.282;9.640;2023-05-18T15:29:36;15.30;99.90
18884;DHT22;9574;47.282;9.640;2023-05-18T15:32:04;15.40;99.90
18884;DHT22;9574;47.282;9.640;2023-05-18T15:34:31;15.40;99.90
18884;DHT22;9574;47.282;9.640;2023-05-18T15:36:58;15.30;99.90
18884;DHT22;9574;47.282;9.640;2023-05-18T15:39:25;15.30;99.90
18884;DHT22;9574;47.282;9.640;2023-05-18T15:41:52;15.30;99.90
18884;DHT22;9574;47.282;9.640;2023-05-18T15:44:21;15.30;99.90
18884;DHT22;9574;47.282;9.640;2023-05-18T15:46:48;15.30;99.90
18884;DHT22;9574;47.282;9.640;2023-05-18T15:49:15;15.30;99.90
18884;DHT22;9574;47.282;9.640;2023-05-18T15:51:43;15.30;99.90
18884;DHT22;9574;47.282;9.640;2023-05-18T15:54:10;15.20;99.90
18884;DHT22;9574;47.282;9.640;2023-05-18T15:56:37;15.20;99.90
18884;DHT22;9574;47.282;9.640;2023-05-18T15:59:04;15.30;99.90
18884;DHT22;9574;47.282;9.640;2023-05-18T16:01:34;15.30;99.90